createdAt,value
2019-05-12T00:00:49.779Z,1.9
2019-05-12T00:02:49.909Z,2.2
2019-05-12T00:04:50.196Z,2.2
2019-05-12T00:06:50.394Z,2.1
2019-05-12T00:08:50.426Z,2.2
2019-05-12T00:10:49.602Z,2.4
2019-05-12T00:12:49.933Z,2.4
2019-05-12T00:14:50.041Z,2.4
2019-05-12T00:16:50.367Z,2.6
2019-05-12T00:18:50.476Z,2.3
2019-05-12T00:20:49.626Z,2.5
2019-05-12T00:22:49.606Z,2.5
2019-05-12T00:24:49.615Z,2.4
2019-05-12T00:26:49.855Z,2.6
2019-05-12T00:28:49.917Z,2.6
2019-05-12T00:30:49.971Z,2.4
2019-05-12T00:32:50.080Z,2.6
2019-05-12T00:34:50.489Z,2.6
2019-05-12T00:36:49.815Z,2.6
2019-05-12T00:38:49.977Z,2.5
2019-05-12T00:40:49.987Z,2.5
2019-05-12T00:42:50.102Z,2.7
2019-05-12T00:44:50.294Z,2.7
2019-05-12T00:46:50.424Z,2.5
2019-05-12T00:48:49.526Z,2.7
2019-05-12T00:50:49.687Z,2.6
2019-05-12T00:52:49.772Z,2.6
2019-05-12T00:54:49.906Z,2.3
2019-05-12T00:56:50.192Z,2.3
2019-05-12T00:58:50.326Z,2.5
2019-05-12T01:00:50.402Z,2.4
2019-05-12T01:02:50.397Z,2.4
2019-05-12T01:04:49.957Z,2.4
2019-05-12T01:06:52.226Z,2.4
2019-05-12T01:08:50.330Z,2.3
2019-05-12T01:10:50.441Z,2.5
2019-05-12T01:12:50.460Z,2.6
2019-05-12T01:14:50.430Z,2.6
2019-05-12T01:16:49.672Z,2.4
2019-05-12T01:18:49.744Z,2.4
2019-05-12T01:20:49.777Z,2.4
2019-05-12T01:22:50.751Z,2.3
2019-05-12T01:24:49.856Z,2.3
2019-05-12T01:26:50.051Z,2.3
2019-05-12T01:28:50.251Z,2.1
2019-05-12T01:30:50.311Z,2.1
2019-05-12T01:32:50.383Z,2.4
2019-05-12T01:34:49.979Z,2.5
2019-05-12T01:36:50.171Z,2.2
2019-05-12T01:38:50.087Z,2.5
2019-05-12T01:40:50.178Z,2.5
2019-05-12T01:42:50.200Z,2.4
2019-05-12T01:44:50.301Z,2.4
2019-05-12T01:46:49.545Z,2.3
2019-05-12T01:48:49.625Z,2.4
2019-05-12T01:50:49.716Z,2.4
2019-05-12T01:52:49.805Z,2.1
2019-05-12T01:54:49.815Z,2.1
2019-05-12T01:56:49.976Z,2.0
2019-05-12T01:58:50.010Z,2.2
2019-05-12T02:00:50.125Z,2.2
2019-05-12T02:02:50.197Z,2.5
2019-05-12T02:04:49.651Z,2.2
2019-05-12T02:06:49.983Z,2.4
2019-05-12T02:08:50.281Z,2.4
2019-05-12T02:10:50.330Z,2.2
2019-05-12T02:12:50.347Z,2.0
2019-05-12T02:14:50.500Z,2.0
2019-05-12T02:16:49.790Z,2.2
2019-05-12T02:18:49.894Z,2.2
2019-05-12T02:20:49.964Z,2.0
2019-05-12T02:22:50.040Z,2.0
2019-05-12T02:24:50.090Z,1.9
2019-05-12T02:26:50.232Z,1.9
2019-05-12T02:28:50.247Z,1.8
2019-05-12T02:30:50.628Z,1.8
2019-05-12T02:32:58.971Z,1.9
2019-05-12T02:34:50.220Z,1.9
2019-05-12T02:36:50.455Z,1.8
2019-05-12T02:38:49.599Z,2.0
2019-05-12T02:40:49.679Z,2.0
2019-05-12T02:42:49.775Z,1.8
2019-05-12T02:44:49.801Z,2.1
2019-05-12T02:46:49.988Z,2.2
2019-05-12T02:48:50.127Z,2.2
2019-05-12T02:50:50.218Z,2.3
2019-05-12T02:52:50.255Z,2.0
2019-05-12T02:55:00.459Z,1.9
2019-05-12T02:56:50.434Z,1.9
2019-05-12T02:58:50.511Z,1.6
2019-05-12T03:00:49.598Z,1.6
2019-05-12T03:02:49.614Z,1.7
2019-05-12T03:04:50.048Z,1.7
2019-05-12T03:06:50.242Z,1.8
2019-05-12T03:08:50.266Z,1.7
2019-05-12T03:10:50.250Z,1.7
2019-05-12T03:12:50.400Z,1.7
2019-05-12T03:14:50.400Z,1.7
2019-05-12T03:16:50.537Z,1.8
2019-05-12T03:18:49.885Z,1.8
2019-05-12T03:20:49.932Z,1.9
2019-05-12T03:22:49.918Z,1.6
2019-05-12T03:25:11.137Z,1.8
2019-05-12T03:26:50.425Z,1.8
2019-05-12T03:28:50.416Z,1.8
2019-05-12T03:30:49.694Z,1.7
2019-05-12T03:32:49.853Z,1.8
2019-05-12T03:34:50.316Z,1.7
2019-05-12T03:36:57.159Z,1.7
2019-05-12T03:38:49.827Z,1.8
2019-05-12T03:40:49.839Z,2.0
2019-05-12T03:42:49.978Z,1.6
2019-05-12T03:44:50.063Z,1.7
2019-05-12T03:46:50.356Z,1.7
2019-05-12T03:48:50.451Z,1.7
2019-05-12T03:50:49.632Z,1.7
2019-05-12T03:52:49.809Z,2.1
2019-05-12T03:54:49.970Z,2.1
2019-05-12T03:56:50.349Z,1.8
2019-05-12T03:58:50.518Z,1.8
2019-05-12T04:00:49.890Z,2.0
2019-05-12T04:02:50.049Z,1.7
2019-05-12T04:04:50.450Z,1.7
2019-05-12T04:06:49.710Z,1.7
2019-05-12T04:08:49.965Z,1.7
2019-05-12T04:10:50.126Z,1.5
2019-05-12T04:12:50.175Z,1.7
2019-05-12T04:14:50.242Z,2.2
2019-05-12T04:16:50.393Z,2.2
2019-05-12T04:18:50.498Z,1.9
2019-05-12T04:20:49.654Z,1.7
2019-05-12T04:22:49.751Z,1.9
2019-05-12T04:24:49.781Z,1.8
2019-05-12T04:26:49.741Z,1.8
2019-05-12T04:28:49.819Z,1.8
2019-05-12T04:30:49.886Z,1.7
2019-05-12T04:32:49.948Z,2.0
2019-05-12T04:34:50.340Z,1.7
2019-05-12T04:36:50.522Z,1.7
2019-05-12T04:38:49.647Z,1.7
2019-05-12T04:40:49.719Z,1.7
2019-05-12T04:42:49.916Z,1.8
2019-05-12T04:44:50.014Z,1.8
2019-05-12T04:46:50.243Z,1.7
2019-05-12T04:48:50.331Z,1.8
2019-05-12T04:50:50.378Z,1.9
2019-05-12T04:52:50.480Z,1.6
2019-05-12T04:54:49.648Z,1.6
2019-05-12T04:56:50.187Z,1.9
2019-05-12T04:58:50.522Z,1.8
2019-05-12T05:00:50.375Z,1.9
2019-05-12T05:02:50.503Z,1.9
2019-05-12T05:04:49.915Z,1.9
2019-05-12T05:06:50.160Z,2.2
2019-05-12T05:08:50.241Z,2.5
2019-05-12T05:10:50.316Z,2.4
2019-05-12T05:12:50.402Z,2.6
2019-05-12T05:14:49.516Z,2.6
2019-05-12T05:16:49.808Z,2.6
2019-05-12T05:18:49.887Z,2.8
2019-05-12T05:20:50.007Z,2.6
2019-05-12T05:22:50.204Z,2.6
2019-05-12T05:24:50.308Z,2.7
2019-05-12T05:26:49.621Z,2.4
2019-05-12T05:28:49.807Z,2.3
2019-05-12T05:30:50.089Z,2.3
2019-05-12T05:32:50.261Z,2.3
2019-05-12T05:34:57.861Z,2.7
2019-05-12T05:36:55.627Z,2.4
2019-05-12T05:39:01.436Z,2.1
2019-05-12T05:40:49.869Z,2.4
2019-05-12T05:42:50.022Z,2.4
2019-05-12T05:44:50.128Z,2.3
2019-05-12T05:46:52.273Z,2.5
2019-05-12T05:48:49.843Z,2.5
2019-05-12T05:50:49.893Z,2.2
2019-05-12T05:52:49.941Z,2.2
2019-05-12T05:54:50.046Z,2.3
2019-05-12T05:57:02.911Z,2.2
2019-05-12T05:58:54.727Z,2.3
2019-05-12T06:01:03.610Z,2.3
2019-05-12T06:02:50.090Z,2.3
2019-05-12T06:04:56.377Z,2.8
2019-05-12T06:06:55.886Z,2.2
2019-05-12T06:08:50.114Z,2.5
2019-05-12T06:10:50.185Z,2.5
2019-05-12T06:12:51.083Z,3.2
2019-05-12T06:14:59.958Z,3.2
2019-05-12T06:16:50.040Z,3.5
2019-05-12T06:18:50.214Z,3.5
2019-05-12T06:20:50.246Z,4.5
2019-05-12T06:22:57.690Z,4.4
2019-05-12T06:24:58.847Z,4.7
2019-05-12T06:27:00.839Z,4.7
2019-05-12T06:28:49.786Z,4.7
2019-05-12T06:30:50.441Z,5.3
2019-05-12T06:32:54.080Z,5.7
2019-05-12T06:34:55.926Z,5.6
2019-05-12T06:36:50.261Z,5.8
2019-05-12T06:38:50.413Z,5.8
2019-05-12T06:40:50.477Z,6.3
2019-05-12T06:42:57.187Z,6.8
2019-05-12T06:44:58.113Z,6.8
2019-05-12T06:47:03.170Z,7.1
2019-05-12T06:48:50.176Z,7.1
2019-05-12T06:50:50.287Z,7.0
2019-05-12T06:52:50.248Z,7.4
2019-05-12T06:54:56.779Z,6.9
2019-05-12T06:57:10.432Z,7.0
2019-05-12T06:58:49.947Z,7.0
2019-05-12T07:00:50.200Z,7.0
2019-05-12T07:02:55.267Z,8.1
2019-05-12T07:04:59.324Z,6.8
2019-05-12T07:06:56.392Z,6.8
2019-05-12T07:09:05.867Z,7.3
2019-05-12T07:11:01.605Z,7.3
2019-05-12T07:13:02.441Z,6.7
2019-05-12T07:14:58.532Z,7.0
2019-05-12T07:17:02.684Z,7.0
2019-05-12T07:18:50.310Z,6.9
2019-05-12T07:20:50.416Z,6.9
2019-05-12T07:22:49.611Z,6.9
2019-05-12T07:24:54.674Z,6.7
2019-05-12T07:27:03.795Z,7.0
2019-05-12T07:28:50.217Z,7.0
2019-05-12T07:30:50.349Z,6.7
2019-05-12T07:32:56.968Z,6.5
2019-05-12T07:34:49.558Z,6.7
2019-05-12T07:36:49.964Z,6.4
2019-05-12T07:38:50.339Z,6.4
2019-05-12T07:40:50.456Z,6.8
2019-05-12T07:42:49.637Z,6.6
2019-05-12T07:44:49.805Z,6.7
2019-05-12T07:46:50.017Z,6.7
2019-05-12T07:48:51.167Z,6.2
2019-05-12T07:51:00.383Z,5.9
2019-05-12T07:52:49.873Z,6.0
2019-05-12T07:54:56.020Z,5.6
2019-05-12T07:56:50.244Z,5.6
2019-05-12T07:58:57.060Z,5.8
2019-05-12T08:01:02.649Z,5.7
2019-05-12T08:02:49.812Z,5.7
2019-05-12T08:04:49.676Z,5.5
2019-05-12T08:06:49.934Z,5.5
2019-05-12T08:08:58.804Z,5.7
2019-05-12T08:10:55.726Z,5.3
2019-05-12T08:12:57.181Z,5.3
2019-05-12T08:14:49.838Z,5.2
2019-05-12T08:16:49.973Z,5.2
2019-05-12T08:18:49.959Z,5.9
2019-05-12T08:20:50.054Z,5.4
2019-05-12T08:22:50.160Z,5.3
2019-05-12T08:24:50.207Z,5.3
2019-05-12T08:27:03.744Z,5.2
2019-05-12T08:28:50.421Z,5.4
2019-05-12T08:30:54.974Z,5.1
2019-05-12T08:33:03.524Z,4.8
2019-05-12T08:34:49.979Z,4.8
2019-05-12T08:36:56.693Z,4.8
2019-05-12T08:38:49.622Z,4.9
2019-05-12T08:40:53.999Z,5.3
2019-05-12T08:42:49.660Z,5.3
2019-05-12T08:44:49.694Z,4.6
2019-05-12T08:46:53.947Z,4.6
2019-05-12T08:48:57.685Z,4.9
2019-05-12T08:50:49.868Z,4.9
2019-05-12T08:52:49.932Z,4.1
2019-05-12T08:54:50.025Z,4.1
2019-05-12T08:56:56.220Z,4.6
2019-05-12T08:58:54.334Z,4.0
2019-05-12T09:00:50.777Z,4.2
2019-05-12T09:02:50.787Z,4.3
2019-05-12T09:04:55.440Z,4.3
2019-05-12T09:06:58.240Z,3.8
2019-05-12T09:08:49.926Z,4.3
2019-05-12T09:10:55.440Z,4.0
2019-05-12T09:12:49.721Z,4.0
2019-05-12T09:14:49.813Z,4.4
2019-05-12T09:17:02.143Z,3.8
2019-05-12T09:18:50.166Z,4.0
2019-05-12T09:20:55.814Z,3.7
2019-05-12T09:23:00.813Z,3.7
2019-05-12T09:24:50.204Z,4.1
2019-05-12T09:26:50.516Z,4.2
2019-05-12T09:28:50.636Z,4.0
2019-05-12T09:30:49.674Z,4.0
2019-05-12T09:32:55.484Z,3.8
2019-05-12T09:34:58.134Z,4.1
2019-05-12T09:36:59.439Z,3.9
2019-05-12T09:39:01.770Z,3.9
2019-05-12T09:41:02.297Z,3.9
2019-05-12T09:42:49.779Z,4.3
2019-05-12T09:44:49.961Z,4.3
2019-05-12T09:46:50.270Z,4.2
2019-05-12T09:48:55.079Z,3.8
2019-05-12T09:52:55.553Z,4.1
2019-05-12T09:54:49.952Z,4.1
2019-05-12T09:56:59.309Z,3.5
2019-05-12T09:59:02.613Z,3.5
2019-05-12T10:00:50.451Z,3.7
2019-05-12T10:02:57.065Z,6.0
2019-05-12T10:05:00.386Z,3.5
2019-05-12T10:06:50.300Z,3.9
2019-05-12T10:08:50.522Z,3.3
2019-05-12T10:10:49.711Z,3.3
2019-05-12T10:12:50.850Z,3.5
2019-05-12T10:14:49.811Z,3.4
2019-05-12T10:16:50.097Z,3.4
2019-05-12T10:18:52.722Z,3.4
2019-05-12T10:20:49.992Z,3.8
2019-05-12T10:22:50.059Z,3.5
2019-05-12T10:24:58.640Z,3.3
2019-05-12T10:26:50.771Z,2.9
2019-05-12T10:28:58.024Z,2.9
2019-05-12T10:30:56.953Z,3.0
2019-05-12T10:32:50.230Z,3.4
2019-05-12T10:34:53.688Z,3.1
2019-05-12T10:36:49.975Z,3.0
2019-05-12T10:38:50.037Z,3.0
2019-05-12T10:40:50.114Z,3.1
2019-05-12T10:42:50.223Z,3.1
2019-05-12T10:44:56.650Z,2.8
2019-05-12T10:46:50.014Z,3.0
2019-05-12T10:48:50.038Z,3.0
2019-05-12T10:50:50.101Z,3.2
2019-05-12T10:52:50.077Z,2.7
2019-05-12T10:54:50.143Z,2.4
2019-05-12T10:56:50.282Z,2.4
2019-05-12T10:58:50.366Z,2.4
2019-05-12T11:00:50.479Z,2.4
2019-05-12T11:02:50.514Z,2.5
2019-05-12T11:04:50.011Z,2.6
2019-05-12T11:06:50.231Z,2.3
2019-05-12T11:08:51.473Z,2.3
2019-05-12T11:12:50.134Z,2.0
2019-05-12T11:14:50.150Z,2.0
2019-05-12T11:16:50.378Z,2.0
2019-05-12T11:18:49.549Z,2.0
2019-05-12T11:20:49.561Z,2.0
2019-05-12T11:22:49.606Z,2.3
2019-05-12T11:24:55.776Z,2.0
2019-05-12T11:26:50.087Z,2.0
2019-05-12T11:28:50.191Z,2.3
2019-05-12T11:30:50.208Z,2.3
2019-05-12T11:32:50.370Z,2.4
2019-05-12T11:34:50.000Z,1.9
2019-05-12T11:36:50.143Z,1.9
2019-05-12T11:38:53.274Z,1.9
2019-05-12T11:40:49.630Z,2.0
2019-05-12T11:43:01.087Z,1.7
2019-05-12T11:44:49.571Z,2.0
2019-05-12T11:46:49.796Z,2.0
2019-05-12T11:48:50.662Z,2.0
2019-05-12T11:50:51.529Z,1.8
2019-05-12T11:52:52.233Z,2.0
2019-05-12T11:54:53.734Z,1.8
2019-05-12T11:56:50.702Z,1.8
2019-05-12T11:58:54.094Z,1.9
2019-05-12T12:00:50.333Z,1.8
2019-05-12T12:02:49.561Z,2.1
2019-05-12T12:04:50.072Z,2.1
2019-05-12T12:06:50.317Z,2.1
2019-05-12T12:08:50.391Z,2.0
2019-05-12T12:10:50.420Z,2.1
2019-05-12T12:12:50.408Z,1.9
2019-05-12T12:14:50.766Z,1.8
2019-05-12T12:16:52.383Z,1.8
2019-05-12T12:19:02.467Z,1.8
2019-05-12T12:21:03.768Z,1.8
2019-05-12T12:22:49.618Z,1.9
2019-05-12T12:24:49.651Z,1.9
2019-05-12T12:26:49.840Z,1.8
2019-05-12T12:28:49.829Z,1.8
2019-05-12T12:30:57.845Z,1.9
2019-05-12T12:33:00.145Z,1.6
2019-05-12T12:34:50.057Z,1.6
2019-05-12T12:36:50.226Z,1.6
2019-05-12T12:38:50.329Z,1.7
2019-05-12T12:40:50.526Z,1.7
2019-05-12T12:42:49.650Z,1.7
2019-05-12T12:44:58.552Z,1.7
2019-05-12T12:47:01.515Z,1.7
2019-05-12T12:48:49.673Z,1.7
2019-05-12T12:50:49.976Z,1.8
2019-05-12T12:52:49.917Z,1.6
2019-05-12T12:54:49.953Z,1.6
2019-05-12T12:56:50.186Z,1.6
2019-05-12T12:58:50.243Z,1.6
2019-05-12T13:00:57.079Z,2.2
2019-05-12T13:02:50.249Z,2.2
2019-05-12T13:04:50.671Z,1.6
2019-05-12T13:06:49.900Z,1.5
2019-05-12T13:08:50.056Z,1.6
2019-05-12T13:10:54.147Z,1.4
2019-05-12T13:13:00.766Z,1.4
2019-05-12T13:14:50.392Z,1.5
2019-05-12T13:16:56.157Z,1.5
2019-05-12T13:18:50.329Z,1.5
2019-05-12T13:20:50.313Z,1.5
2019-05-12T13:22:50.353Z,1.5
2019-05-12T13:24:50.442Z,1.4
2019-05-12T13:26:49.631Z,1.4
2019-05-12T13:28:55.027Z,1.4
2019-05-12T13:30:50.346Z,1.4
2019-05-12T13:32:50.332Z,1.3
2019-05-12T13:34:52.150Z,1.3
2019-05-12T13:36:50.280Z,1.3
2019-05-12T13:38:50.314Z,1.3
2019-05-12T13:40:50.293Z,1.1
2019-05-12T13:42:50.460Z,1.1
2019-05-12T13:44:50.424Z,1.3
2019-05-12T13:46:58.745Z,1.3
2019-05-12T13:48:59.717Z,1.1
2019-05-12T13:50:49.909Z,1.1
2019-05-12T13:52:49.908Z,1.4
2019-05-12T13:54:50.009Z,1.4
2019-05-12T13:56:50.213Z,1.5
2019-05-12T13:58:50.198Z,1.2
2019-05-12T14:01:13.068Z,1.5
2019-05-12T14:03:04.433Z,1.5
2019-05-12T14:04:49.587Z,1.4
2019-05-12T14:06:49.740Z,1.2
2019-05-12T14:08:49.742Z,1.3
2019-05-12T14:10:59.335Z,1.3
2019-05-12T14:12:49.943Z,1.3
2019-05-12T14:14:49.953Z,1.3
2019-05-12T14:16:59.452Z,1.4
2019-05-12T14:18:56.281Z,1.3
2019-05-12T14:20:58.406Z,1.3
2019-05-12T14:22:50.421Z,1.3
2019-05-12T14:24:50.446Z,1.3
2019-05-12T14:26:49.741Z,1.3
2019-05-12T14:28:49.901Z,1.3
2019-05-12T14:30:54.208Z,1.2
2019-05-12T14:32:58.958Z,1.2
2019-05-12T14:34:55.788Z,1.3
2019-05-12T14:36:49.910Z,1.4
2019-05-12T14:38:49.962Z,1.4
2019-05-12T14:40:50.008Z,1.4
2019-05-12T14:42:50.032Z,1.2
2019-05-12T14:44:50.043Z,1.4
2019-05-12T14:46:53.039Z,1.2
2019-05-12T14:48:50.795Z,1.2
2019-05-12T14:50:49.723Z,1.3
2019-05-12T14:52:55.123Z,1.3
2019-05-12T14:54:49.694Z,1.4
2019-05-12T14:56:57.776Z,1.4
2019-05-12T14:58:55.555Z,1.4
2019-05-12T15:00:56.034Z,1.3
2019-05-12T15:02:50.249Z,1.3
2019-05-12T15:04:49.600Z,1.2
2019-05-12T15:06:49.737Z,1.2
2019-05-12T15:08:49.778Z,1.2
2019-05-12T15:10:49.783Z,1.2
2019-05-12T15:12:49.837Z,1.2
2019-05-12T15:14:49.863Z,1.2
2019-05-12T15:16:50.077Z,1.2
2019-05-12T15:18:50.412Z,1.2
2019-05-12T15:20:53.913Z,1.6
2019-05-12T15:22:55.321Z,1.3
2019-05-12T15:24:58.937Z,1.5
2019-05-12T15:28:49.829Z,1.3
2019-05-12T15:30:49.806Z,1.3
2019-05-12T15:32:50.140Z,1.4
2019-05-12T15:34:50.572Z,1.3
2019-05-12T15:36:56.050Z,1.3
2019-05-12T15:38:58.962Z,1.2
2019-05-12T15:40:50.358Z,1.1
2019-05-12T15:43:00.348Z,1.3
2019-05-12T15:44:49.808Z,1.2
2019-05-12T15:46:50.148Z,1.2
2019-05-12T15:48:50.366Z,1.2
2019-05-12T15:50:50.425Z,1.4
2019-05-12T15:52:49.593Z,1.4
2019-05-12T15:54:53.887Z,1.2
2019-05-12T15:56:50.202Z,1.2
2019-05-12T15:58:50.245Z,1.4
2019-05-12T16:00:50.297Z,1.3
2019-05-12T16:02:50.401Z,1.4
2019-05-12T16:04:49.758Z,1.2
2019-05-12T16:06:57.654Z,1.2
2019-05-12T16:08:49.856Z,1.2
2019-05-12T16:10:49.906Z,1.2
2019-05-12T16:12:49.955Z,1.2
2019-05-12T16:14:49.974Z,1.1
2019-05-12T16:16:50.095Z,1.2
2019-05-12T16:18:50.896Z,1.5
2019-05-12T16:20:49.906Z,1.4
2019-05-12T16:22:49.984Z,1.5
2019-05-12T16:24:50.610Z,1.5
2019-05-12T16:26:53.255Z,1.4
2019-05-12T16:29:03.045Z,1.4
2019-05-12T16:30:50.109Z,1.4
2019-05-12T16:32:50.186Z,1.3
2019-05-12T16:34:49.553Z,1.3
2019-05-12T16:36:54.817Z,1.2
2019-05-12T16:38:55.302Z,1.5
2019-05-12T16:40:50.242Z,1.5
2019-05-12T16:42:59.527Z,1.6
2019-05-12T16:44:50.111Z,1.7
2019-05-12T16:46:50.243Z,1.7
2019-05-12T16:48:57.101Z,1.7
2019-05-12T16:50:50.168Z,1.4
2019-05-12T16:52:50.328Z,1.4
2019-05-12T16:54:50.286Z,1.2
2019-05-12T16:56:50.495Z,1.2
2019-05-12T16:58:49.531Z,1.3
2019-05-12T17:00:53.578Z,1.3
2019-05-12T17:02:58.011Z,1.4
2019-05-12T17:04:49.547Z,1.4
2019-05-12T17:06:49.702Z,1.4
2019-05-12T17:08:49.651Z,1.4
2019-05-12T17:11:15.380Z,1.3
2019-05-12T17:12:49.689Z,1.3
2019-05-12T17:14:50.375Z,1.3
2019-05-12T17:16:50.447Z,1.4
2019-05-12T17:18:50.475Z,1.3
2019-05-12T17:20:51.271Z,1.4
2019-05-12T17:22:59.774Z,1.4
2019-05-12T17:24:49.548Z,1.3
2019-05-12T17:26:49.749Z,1.2
2019-05-12T17:28:49.758Z,1.3
2019-05-12T17:30:49.768Z,1.2
2019-05-12T17:33:02.305Z,1.5
2019-05-12T17:34:50.166Z,1.5
2019-05-12T17:37:00.026Z,1.4
2019-05-12T17:38:55.986Z,1.7
2019-05-12T17:42:49.858Z,1.7
2019-05-12T17:44:49.900Z,1.1
2019-05-12T17:46:50.132Z,1.3
2019-05-12T17:48:50.173Z,1.4
2019-05-12T17:50:50.768Z,1.3
2019-05-12T17:54:49.573Z,1.1
2019-05-12T17:56:49.854Z,1.3
2019-05-12T17:58:49.834Z,1.2
2019-05-12T18:00:52.139Z,1.3
2019-05-12T18:03:06.023Z,1.3
2019-05-12T18:04:50.231Z,1.3
2019-05-12T18:06:50.383Z,1.2
2019-05-12T18:08:50.420Z,1.2
2019-05-12T18:10:50.395Z,1.5
2019-05-12T18:12:50.477Z,1.5
2019-05-12T18:14:52.485Z,1.1
2019-05-12T18:17:03.765Z,1.4
2019-05-12T18:18:49.645Z,1.4
2019-05-12T18:20:49.687Z,1.4
2019-05-12T18:22:49.969Z,1.3
2019-05-12T18:24:51.092Z,1.9
2019-05-12T18:27:04.368Z,1.4
2019-05-12T18:28:49.647Z,1.4
2019-05-12T18:30:49.602Z,1.4
2019-05-12T18:33:04.272Z,1.3
2019-05-12T18:34:50.317Z,1.3
2019-05-12T18:36:59.487Z,1.5
2019-05-12T18:38:55.139Z,1.5
2019-05-12T18:40:50.522Z,1.6
2019-05-12T18:42:50.499Z,1.6
2019-05-12T18:44:49.609Z,1.5
2019-05-12T18:46:49.983Z,1.4
2019-05-12T18:49:02.969Z,2.1
2019-05-12T18:50:49.816Z,2.1
2019-05-12T18:52:49.861Z,1.6
2019-05-12T18:54:56.800Z,1.5
2019-05-12T18:57:02.655Z,1.5
2019-05-12T18:58:50.253Z,1.5
2019-05-12T19:00:50.166Z,1.5
2019-05-12T19:02:51.485Z,1.6
2019-05-12T19:04:49.937Z,1.3
2019-05-12T19:06:50.071Z,1.5
2019-05-12T19:08:50.090Z,1.6
2019-05-12T19:10:52.020Z,1.6
2019-05-12T19:13:00.361Z,1.6
2019-05-12T19:14:54.606Z,1.5
2019-05-12T19:16:49.981Z,1.5
2019-05-12T19:18:50.148Z,1.5
2019-05-12T19:20:50.229Z,1.6
2019-05-12T19:23:00.120Z,1.6
2019-05-12T19:24:59.650Z,1.6
2019-05-12T19:26:50.384Z,1.5
2019-05-12T19:28:57.798Z,1.5
2019-05-12T19:30:50.521Z,1.4
2019-05-12T19:32:54.675Z,1.5
2019-05-12T19:34:50.043Z,1.4
2019-05-12T19:36:50.354Z,1.7
2019-05-12T19:38:49.558Z,1.5
2019-05-12T19:41:00.824Z,1.5
2019-05-12T19:43:02.937Z,1.5
2019-05-12T19:44:50.224Z,1.5
2019-05-12T19:46:50.468Z,1.4
2019-05-12T19:48:50.470Z,1.5
2019-05-12T19:50:57.084Z,1.7
2019-05-12T19:52:49.612Z,1.6
2019-05-12T19:54:49.632Z,1.4
2019-05-12T19:56:50.012Z,1.7
2019-05-12T19:58:50.007Z,1.7
2019-05-12T20:00:50.029Z,1.7
2019-05-12T20:02:50.030Z,2.0
2019-05-12T20:04:56.339Z,1.7
2019-05-12T20:06:49.874Z,1.4
2019-05-12T20:09:05.890Z,1.4
2019-05-12T20:10:50.003Z,1.9
2019-05-12T20:12:57.091Z,1.5
2019-05-12T20:14:56.536Z,1.7
2019-05-12T20:16:50.304Z,1.7
2019-05-12T20:18:50.269Z,1.5
2019-05-12T20:20:50.217Z,1.9
2019-05-12T20:22:50.194Z,1.8
2019-05-12T20:24:50.267Z,1.8
2019-05-12T20:26:49.612Z,1.8
2019-05-12T20:28:53.309Z,2.0
2019-05-12T20:31:01.351Z,1.8
2019-05-12T20:32:49.722Z,1.8
2019-05-12T20:34:55.314Z,1.7
2019-05-12T20:36:49.737Z,1.7
2019-05-12T20:38:49.774Z,1.7
2019-05-12T20:40:49.858Z,1.8
2019-05-12T20:43:07.674Z,1.7
2019-05-12T20:44:56.657Z,1.7
2019-05-12T20:46:49.632Z,2.1
2019-05-12T20:48:49.756Z,1.6
2019-05-12T20:50:49.696Z,1.7
2019-05-12T20:52:58.686Z,1.7
2019-05-12T20:54:59.831Z,1.7
2019-05-12T20:57:03.409Z,1.7
2019-05-12T20:58:49.941Z,1.8
2019-05-12T21:00:50.385Z,1.6
2019-05-12T21:02:50.472Z,1.6
2019-05-12T21:05:00.718Z,1.8
2019-05-12T21:06:49.856Z,1.8
2019-05-12T21:08:56.411Z,1.8
2019-05-12T21:10:49.751Z,1.7
2019-05-12T21:12:50.319Z,1.4
2019-05-12T21:14:53.975Z,1.4
2019-05-12T21:16:50.378Z,1.9
2019-05-12T21:19:07.308Z,1.7
2019-05-12T21:20:54.666Z,1.6
2019-05-12T21:22:50.051Z,1.6
2019-05-12T21:24:50.040Z,1.7
2019-05-12T21:26:50.157Z,1.9
2019-05-12T21:28:50.104Z,1.9
2019-05-12T21:30:50.089Z,1.8
2019-05-12T21:33:01.037Z,2.1
2019-05-12T21:34:57.622Z,2.1
2019-05-12T21:36:49.699Z,1.9
2019-05-12T21:38:49.651Z,1.8
2019-05-12T21:40:49.706Z,1.6
2019-05-12T21:42:49.783Z,1.6
2019-05-12T21:44:49.791Z,1.8
2019-05-12T21:47:05.359Z,1.7
2019-05-12T21:48:49.536Z,1.6
2019-05-12T21:50:49.566Z,1.7
2019-05-12T21:52:59.741Z,1.9
2019-05-12T21:54:50.044Z,1.9
2019-05-12T21:56:50.156Z,1.6
2019-05-12T21:58:58.109Z,1.6
2019-05-12T22:01:03.878Z,1.6
2019-05-12T22:02:49.519Z,1.6
2019-05-12T22:04:50.137Z,1.6
2019-05-12T22:06:56.716Z,1.7
2019-05-12T22:09:01.401Z,1.8
2019-05-12T22:10:50.098Z,1.7
2019-05-12T22:12:50.149Z,1.7
2019-05-12T22:14:50.128Z,2.0
2019-05-12T22:16:50.367Z,1.8
2019-05-12T22:18:59.348Z,1.8
2019-05-12T22:21:03.168Z,1.8
2019-05-12T22:22:49.888Z,1.7
2019-05-12T22:24:49.878Z,2.0
2019-05-12T22:26:50.045Z,1.8
2019-05-12T22:28:53.220Z,1.6
2019-05-12T22:30:49.874Z,1.6
2019-05-12T22:32:49.908Z,1.8
2019-05-12T22:34:50.284Z,1.8
2019-05-12T22:36:58.979Z,2.0
2019-05-12T22:39:00.681Z,1.8
2019-05-12T22:40:59.508Z,1.8
2019-05-12T22:45:01.337Z,1.6
2019-05-12T22:46:49.752Z,1.8
2019-05-12T22:48:49.752Z,1.8
2019-05-12T22:50:49.835Z,1.7
2019-05-12T22:52:49.868Z,2.0
2019-05-12T22:54:51.210Z,1.8
2019-05-12T22:56:56.818Z,1.8
2019-05-12T22:58:59.869Z,1.9
2019-05-12T23:02:50.445Z,1.7
2019-05-12T23:04:49.942Z,2.1
2019-05-12T23:06:50.005Z,1.8
2019-05-12T23:08:50.052Z,1.8
2019-05-12T23:10:55.635Z,1.8
2019-05-12T23:12:59.621Z,2.0
2019-05-12T23:16:50.260Z,1.7
2019-05-12T23:18:50.359Z,1.6
2019-05-12T23:20:50.338Z,1.6
2019-05-12T23:22:50.318Z,2.0
2019-05-12T23:24:50.326Z,2.0
2019-05-12T23:26:50.483Z,2.1
2019-05-12T23:28:50.550Z,1.7
2019-05-12T23:30:50.351Z,1.7
2019-05-12T23:32:52.980Z,1.8
2019-05-12T23:34:58.633Z,1.8
2019-05-12T23:40:50.126Z,1.8
2019-05-12T23:42:50.121Z,1.7
2019-05-12T23:44:50.172Z,1.8
2019-05-12T23:46:50.433Z,1.8
2019-05-12T23:48:49.554Z,2.1
2019-05-12T23:50:50.475Z,1.9
2019-05-12T23:52:49.588Z,2.0
2019-05-12T23:54:49.575Z,1.9
2019-05-12T23:56:49.938Z,1.9
2019-05-12T23:58:50.012Z,2.0
